Slavutich-16 — ENYT — position and weather

sailwx.info

Track history (hours):
 
Tides and Currents Weather Stations Pressure Air Temp Water Temp Dewpoint Dewpoint Depression Visibility Wind Speed Wind Dir Waves Ship Positions

Slavutich-16

Last reported at 2014-Aug-31 14:21 UTC. Time now 2014-Sep-02 02:14 UTC.
Position N 46°35' E 031°51'.

Length 108 m; draft 3.2 m.

Type: Port tender. MMSI: 272046000.

Date/timePositionNaut miles runAvg speedWind from/ knotsBaromVisibWave heightAir tempDewpointWater temp
2014-Aug-31 14:21N 46°35' E 031°51'6 6.8
2014-Aug-31 13:31N 46°33' E 031°59'147 4.4
2014-Aug-30 04:04N 47°43' E 035°09'3 6.5
2014-Aug-30 03:33N 47°47' E 035°09'6 5.7
2014-Aug-30 02:33N 47°51' E 035°05'0 0.5
2014-Aug-30 01:33N 47°52' E 035°05'1 0.8
2014-Aug-30 00:32N 47°53' E 035°06'0 0.0
2014-Aug-29 23:32N 47°53' E 035°06'0 0.1
2014-Aug-29 22:32N 47°53' E 035°06'0 0.4
2014-Aug-29 21:32N 47°52' E 035°06'0 0.3
2014-Aug-29 20:32N 47°52' E 035°06'0 0.0
2014-Aug-29 19:32N 47°52' E 035°06'0 0.0
2014-Aug-29 18:32N 47°52' E 035°06'0 0.0
2014-Aug-29 17:32N 47°52' E 035°06'1 1.0
2014-Aug-29 16:33N 47°53' E 035°06'  
2014-Aug-26 12:27N 47°58' E 035°07'6 7.0
2014-Aug-26 11:34N 47°52' E 035°05'2 1.9
2014-Aug-26 10:33N 47°50' E 035°06'7 6.5
2014-Aug-26 09:32N 47°44' E 035°10'146 6.3
2014-Aug-25 10:32N 46°32' E 032°03'7 7.4
2014-Aug-25 09:33N 46°34' E 031°53'  
2014-Aug-22 06:33N 46°34' E 031°55'  
Track history (hours):
 
Tides and Currents Weather Stations Pressure Air Temp Water Temp Dewpoint Dewpoint Depression Visibility Wind Speed Wind Dir Waves Ship Positions

Slavutich-16

Last reported at 2014-Aug-31 14:21 UTC. Time now 2014-Sep-02 02:14 UTC.
Position N 46°35' E 031°51'.

Length 108 m; draft 3.2 m.

Type: Port tender. MMSI: 272046000.

Date/timePositionNaut miles runAvg speedWind from/ knotsBaromVisibWave heightAir tempDewpointWater temp
2014-Aug-31 14:21N 46°35' E 031°51'6 6.8
2014-Aug-31 13:31N 46°33' E 031°59'147 4.4
2014-Aug-30 04:04N 47°43' E 035°09'3 6.5
2014-Aug-30 03:33N 47°47' E 035°09'6 5.7
2014-Aug-30 02:33N 47°51' E 035°05'0 0.5
2014-Aug-30 01:33N 47°52' E 035°05'1 0.8
2014-Aug-30 00:32N 47°53' E 035°06'0 0.0
2014-Aug-29 23:32N 47°53' E 035°06'0 0.1
2014-Aug-29 22:32N 47°53' E 035°06'0 0.4
2014-Aug-29 21:32N 47°52' E 035°06'0 0.3
2014-Aug-29 20:32N 47°52' E 035°06'0 0.0
2014-Aug-29 19:32N 47°52' E 035°06'0 0.0
2014-Aug-29 18:32N 47°52' E 035°06'0 0.0
2014-Aug-29 17:32N 47°52' E 035°06'1 1.0
2014-Aug-29 16:33N 47°53' E 035°06'  
2014-Aug-26 12:27N 47°58' E 035°07'6 7.0
2014-Aug-26 11:34N 47°52' E 035°05'2 1.9
2014-Aug-26 10:33N 47°50' E 035°06'7 6.5
2014-Aug-26 09:32N 47°44' E 035°10'146 6.3
2014-Aug-25 10:32N 46°32' E 032°03'7 7.4
2014-Aug-25 09:33N 46°34' E 031°53'  
2014-Aug-22 06:33N 46°34' E 031°55'  

Dump ship's entire track history